• Join FlightAware (Why Join?)
  • Login
  • US Flag 
09:38PM EDT


 

Airport Tracker/Info


-or-


 

Live Flight TrackerFlight Track Log ✈ CTL309 ✈ 11-Jun-2013 ✈ KBKL - KOSU

Flight Track Log - Related Links

Times and Time Zones

All times are in EDT time to prevent confusion due to time zone crossing. See the CTL309 flight status page for this flight to view local times or setup timezone preferences in your user account.

Time Position Orientation Groundspeed Altitude Reporting Facility
EDT Latitude Longitude Course Direction KTS MPH feet Rate Location/Type
09:44PM 41.5125 -81.7006 216° Southwest 126 145 900  Level Cleveland Center
09:45PM 41.5414 -81.7511 307° West 130 150 2,300 960 Climbing Cleveland Center
09:46PM 41.5450 -81.7983 276° West 122 140 3,200 900 Climbing Cleveland Center
09:47PM 41.5383 -81.8397 258° West 118 136 4,200 900 Climbing Cleveland Center
09:48PM 41.5108 -81.8642 214° Southwest 119 137 5,100 720 Climbing Cleveland Center
09:50PM 41.3006 -81.8801 216° Southwest  Level FlightAware Approximate
09:50PM 41.4814 -81.8914 215° Southwest 134 154 5,700  Level Cleveland Center
09:50PM 41.4519 -81.9156 212° Southwest 141 162 6,000 120 Climbing Cleveland Center
09:51PM 41.4142 -81.9453 211° Southwest 154 177 6,000  Level Cleveland Center
09:52PM 41.3781 -81.9778 214° Southwest 156 180 6,000 -60 Level Cleveland Center
09:53PM 41.3403 -82.0103 213° Southwest 157 181 5,900  Descending Cleveland Center
09:54PM 41.3086 -82.0428 218° Southwest 155 178 6,000  Climbing Cleveland Center
09:57PM 41.2186 -82.1100 209° Southwest 156 180 6,000  Level Indianapolis Center
09:58PM 41.1822 -82.1431 214° Southwest 157 181 6,000  Level Indianapolis Center
09:59PM 41.1464 -82.1744 213° Southwest 155 178 6,000 -60 Level Indianapolis Center
10:00PM 41.1100 -82.2067 214° Southwest 155 178 5,900  Descending Indianapolis Center
10:01PM 41.0744 -82.2389 214° Southwest 155 178 6,000  Climbing Indianapolis Center
10:02PM 41.0372 -82.2675 210° Southwest 154 177 6,000  Level Indianapolis Center
10:03PM 40.9992 -82.2989 212° Southwest 158 182 6,000  Level Indianapolis Center
10:04PM 40.9625 -82.3317 214° Southwest 158 182 6,000  Level Indianapolis Center
10:05PM 40.9256 -82.3639 213° Southwest 158 182 6,000  Level Indianapolis Center
10:06PM 40.8861 -82.3964 212° Southwest 162 186 6,000  Level Indianapolis Center
10:07PM 40.8478 -82.4267 211° Southwest 160 184 6,000  Level Indianapolis Center
10:08PM 40.8108 -82.4611 215° Southwest 160 184 6,000  Level Indianapolis Center
10:09PM 40.7719 -82.4933 212° Southwest 163 188 6,000  Level Indianapolis Center
10:10PM 40.7342 -82.5261 213° Southwest 161 185 6,000 -60 Level Indianapolis Center
10:11PM 40.6961 -82.5589 213° Southwest 162 186 5,900  Descending Indianapolis Center
10:12PM 40.6506 -82.5942 210° Southwest 161 185 6,000  Climbing Indianapolis Center
10:13PM 40.6144 -82.6267 214° Southwest 157 181 6,000  Level Indianapolis Center
10:14PM 40.5761 -82.6583 212° Southwest 159 183 6,000  Level Indianapolis Center
10:15PM 40.5389 -82.6919 214° Southwest 161 185 6,000  Level Indianapolis Center
10:16PM 40.5014 -82.7233 212° Southwest 158 182 6,000  Level Indianapolis Center
10:17PM 40.4636 -82.7536 211° Southwest 157 181 6,000  Level Indianapolis Center
10:18PM 40.4267 -82.7878 215° Southwest 159 183 6,000 -240 Level Indianapolis Center
10:19PM 40.3892 -82.8258 218° Southwest 162 186 5,600 -480 Descending Indianapolis Center
10:20PM 40.3461 -82.8561 208° Southwest 172 198 5,100 -540 Descending Indianapolis Center
10:21PM 40.3028 -82.8908 211° Southwest 177 204 4,600 -600 Descending Indianapolis Center
10:22PM 40.2500 -82.9331 211° Southwest 184 212 3,800 -840 Descending Indianapolis Center
10:23PM 40.2150 -82.9625 213° Southwest 183 211 3,000 -720 Descending Indianapolis Center
10:24PM 40.1708 -82.9922 207° Southwest 180 207 2,500 -600 Descending Indianapolis Center
10:25PM 40.1267 -83.0158 202° Southwest 174 200 1,800 -600 Descending Indianapolis Center
10:26PM 40.0878 -83.0369 203° Southwest 161 185 1,400 -300 Descending Indianapolis Center
10:27PM 40.0553 -83.0597 208° Southwest 150 173 1,200 -240 Descending Indianapolis Center
10:29PM 40.0667 -83.0667 201° Southwest  Level FlightAware Approximate